sensor_id;sensor_type;location;lat;lon;timestamp;P1;durP1;ratioP1;P2;durP2;ratioP2
21215;SDS011;10765;50.954;5.322;2023-08-21T00:01:33;5.47;;;2.07;;
21215;SDS011;10765;50.954;5.322;2023-08-21T00:04:00;5.33;;;2.27;;
21215;SDS011;10765;50.954;5.322;2023-08-21T00:06:26;5.20;;;2.00;;
21215;SDS011;10765;50.954;5.322;2023-08-21T00:08:53;4.97;;;2.07;;
21215;SDS011;10765;50.954;5.322;2023-08-21T00:11:20;5.10;;;2.20;;
21215;SDS011;10765;50.954;5.322;2023-08-21T00:13:47;6.70;;;2.03;;
21215;SDS011;10765;50.954;5.322;2023-08-21T00:16:14;5.87;;;2.13;;
21215;SDS011;10765;50.954;5.322;2023-08-21T00:18:43;4.93;;;1.97;;
21215;SDS011;10765;50.954;5.322;2023-08-21T00:21:10;5.50;;;2.10;;
21215;SDS011;10765;50.954;5.322;2023-08-21T00:23:37;7.13;;;2.50;;
21215;SDS011;10765;50.954;5.322;2023-08-21T00:26:04;4.33;;;2.00;;
21215;SDS011;10765;50.954;5.322;2023-08-21T00:28:31;6.33;;;2.53;;
21215;SDS011;10765;50.954;5.322;2023-08-21T00:31:00;6.53;;;2.13;;
21215;SDS011;10765;50.954;5.322;2023-08-21T00:33:28;5.43;;;2.00;;
21215;SDS011;10765;50.954;5.322;2023-08-21T00:35:56;6.43;;;1.87;;
21215;SDS011;10765;50.954;5.322;2023-08-21T00:38:23;4.83;;;2.23;;
21215;SDS011;10765;50.954;5.322;2023-08-21T00:40:50;7.63;;;2.30;;
21215;SDS011;10765;50.954;5.322;2023-08-21T00:43:17;3.93;;;1.90;;
21215;SDS011;10765;50.954;5.322;2023-08-21T00:45:45;6.20;;;2.27;;
21215;SDS011;10765;50.954;5.322;2023-08-21T00:48:13;7.73;;;2.10;;
21215;SDS011;10765;50.954;5.322;2023-08-21T00:50:41;3.77;;;2.13;;
21215;SDS011;10765;50.954;5.322;2023-08-21T00:53:10;7.80;;;2.27;;
21215;SDS011;10765;50.954;5.322;2023-08-21T00:55:37;4.33;;;2.10;;
21215;SDS011;10765;50.954;5.322;2023-08-21T00:58:05;6.40;;;2.00;;
21215;SDS011;10765;50.954;5.322;2023-08-21T01:00:33;5.47;;;2.03;;
21215;SDS011;10765;50.954;5.322;2023-08-21T01:03:01;4.53;;;1.93;;
21215;SDS011;10765;50.954;5.322;2023-08-21T01:05:28;4.27;;;1.87;;
21215;SDS011;10765;50.954;5.322;2023-08-21T01:07:56;5.90;;;1.97;;
21215;SDS011;10765;50.954;5.322;2023-08-21T01:10:31;8.70;;;2.00;;
21215;SDS011;10765;50.954;5.322;2023-08-21T01:13:06;5.67;;;2.10;;
21215;SDS011;10765;50.954;5.322;2023-08-21T01:15:41;4.30;;;2.33;;
21215;SDS011;10765;50.954;5.322;2023-08-21T01:18:10;5.03;;;2.50;;
21215;SDS011;10765;50.954;5.322;2023-08-21T01:20:38;6.43;;;2.17;;
21215;SDS011;10765;50.954;5.322;2023-08-21T01:23:05;4.50;;;2.20;;
21215;SDS011;10765;50.954;5.322;2023-08-21T01:25:34;6.30;;;2.03;;
21215;SDS011;10765;50.954;5.322;2023-08-21T01:28:00;4.77;;;2.27;;
21215;SDS011;10765;50.954;5.322;2023-08-21T01:30:28;6.50;;;2.27;;
21215;SDS011;10765;50.954;5.322;2023-08-21T01:32:59;4.63;;;2.33;;
21215;SDS011;10765;50.954;5.322;2023-08-21T01:35:30;4.87;;;2.10;;
21215;SDS011;10765;50.954;5.322;2023-08-21T01:37:59;4.30;;;2.27;;
21215;SDS011;10765;50.954;5.322;2023-08-21T01:40:28;7.43;;;2.30;;
21215;SDS011;10765;50.954;5.322;2023-08-21T01:42:56;4.00;;;1.93;;
21215;SDS011;10765;50.954;5.322;2023-08-21T01:45:23;7.70;;;2.03;;
21215;SDS011;10765;50.954;5.322;2023-08-21T01:47:50;5.07;;;2.03;;
21215;SDS011;10765;50.954;5.322;2023-08-21T01:50:17;4.70;;;2.07;;
21215;SDS011;10765;50.954;5.322;2023-08-21T01:52:44;6.20;;;2.27;;
21215;SDS011;10765;50.954;5.322;2023-08-21T01:55:11;5.73;;;2.53;;
21215;SDS011;10765;50.954;5.322;2023-08-21T01:57:38;5.10;;;2.20;;
21215;SDS011;10765;50.954;5.322;2023-08-21T02:00:07;6.03;;;2.33;;
21215;SDS011;10765;50.954;5.322;2023-08-21T02:02:34;6.43;;;1.77;;
21215;SDS011;10765;50.954;5.322;2023-08-21T02:05:01;5.20;;;2.20;;
21215;SDS011;10765;50.954;5.322;2023-08-21T02:07:29;6.17;;;1.80;;
21215;SDS011;10765;50.954;5.322;2023-08-21T02:09:55;5.83;;;2.00;;
21215;SDS011;10765;50.954;5.322;2023-08-21T02:12:22;4.37;;;2.00;;
21215;SDS011;10765;50.954;5.322;2023-08-21T02:14:49;4.17;;;1.80;;
21215;SDS011;10765;50.954;5.322;2023-08-21T02:17:17;4.90;;;2.20;;
21215;SDS011;10765;50.954;5.322;2023-08-21T02:19:44;4.07;;;1.97;;
21215;SDS011;10765;50.954;5.322;2023-08-21T02:22:11;5.53;;;2.47;;
21215;SDS011;10765;50.954;5.322;2023-08-21T02:24:38;6.40;;;2.70;;
21215;SDS011;10765;50.954;5.322;2023-08-21T02:27:05;4.13;;;2.03;;
21215;SDS011;10765;50.954;5.322;2023-08-21T02:29:32;6.23;;;2.47;;
21215;SDS011;10765;50.954;5.322;2023-08-21T02:31:59;5.70;;;2.53;;
21215;SDS011;10765;50.954;5.322;2023-08-21T02:34:27;5.70;;;2.83;;
21215;SDS011;10765;50.954;5.322;2023-08-21T02:36:54;7.43;;;2.67;;
21215;SDS011;10765;50.954;5.322;2023-08-21T02:39:21;5.77;;;2.50;;
21215;SDS011;10765;50.954;5.322;2023-08-21T02:41:48;5.60;;;2.50;;
21215;SDS011;10765;50.954;5.322;2023-08-21T02:44:14;5.50;;;2.80;;
21215;SDS011;10765;50.954;5.322;2023-08-21T02:46:41;6.00;;;2.30;;
21215;SDS011;10765;50.954;5.322;2023-08-21T02:49:08;6.50;;;3.00;;
21215;SDS011;10765;50.954;5.322;2023-08-21T02:51:36;4.63;;;2.70;;
21215;SDS011;10765;50.954;5.322;2023-08-21T02:54:03;5.90;;;2.57;;
21215;SDS011;10765;50.954;5.322;2023-08-21T02:56:30;6.83;;;2.80;;
21215;SDS011;10765;50.954;5.322;2023-08-21T02:58:57;5.27;;;2.67;;
21215;SDS011;10765;50.954;5.322;2023-08-21T03:01:24;4.83;;;2.80;;
21215;SDS011;10765;50.954;5.322;2023-08-21T03:03:51;6.13;;;2.27;;
21215;SDS011;10765;50.954;5.322;2023-08-21T03:06:18;6.77;;;2.57;;
21215;SDS011;10765;50.954;5.322;2023-08-21T03:08:47;4.63;;;2.20;;
21215;SDS011;10765;50.954;5.322;2023-08-21T03:11:14;5.40;;;2.50;;
21215;SDS011;10765;50.954;5.322;2023-08-21T03:13:41;3.27;;;2.00;;
21215;SDS011;10765;50.954;5.322;2023-08-21T03:16:07;4.63;;;2.00;;
21215;SDS011;10765;50.954;5.322;2023-08-21T03:21:20;4.83;;;2.30;;
21215;SDS011;10765;50.954;5.322;2023-08-21T03:23:50;3.73;;;2.77;;
21215;SDS011;10765;50.954;5.322;2023-08-21T03:26:18;6.03;;;2.70;;
21215;SDS011;10765;50.954;5.322;2023-08-21T03:28:45;5.90;;;2.30;;
21215;SDS011;10765;50.954;5.322;2023-08-21T03:31:11;3.67;;;2.30;;
21215;SDS011;10765;50.954;5.322;2023-08-21T03:33:38;3.20;;;2.27;;
21215;SDS011;10765;50.954;5.322;2023-08-21T03:36:05;4.70;;;2.37;;
21215;SDS011;10765;50.954;5.322;2023-08-21T03:38:32;6.43;;;2.53;;
21215;SDS011;10765;50.954;5.322;2023-08-21T03:41:01;3.93;;;2.20;;
21215;SDS011;10765;50.954;5.322;2023-08-21T03:43:30;5.77;;;2.40;;
21215;SDS011;10765;50.954;5.322;2023-08-21T03:45:57;3.47;;;1.93;;
21215;SDS011;10765;50.954;5.322;2023-08-21T03:48:24;2.33;;;2.00;;
21215;SDS011;10765;50.954;5.322;2023-08-21T03:50:51;3.73;;;2.30;;
21215;SDS011;10765;50.954;5.322;2023-08-21T03:53:17;4.07;;;2.23;;
21215;SDS011;10765;50.954;5.322;2023-08-21T03:55:44;3.10;;;2.20;;
21215;SDS011;10765;50.954;5.322;2023-08-21T03:58:13;3.17;;;2.07;;
21215;SDS011;10765;50.954;5.322;2023-08-21T04:00:41;4.77;;;2.23;;
21215;SDS011;10765;50.954;5.322;2023-08-21T04:03:08;3.70;;;2.27;;
21215;SDS011;10765;50.954;5.322;2023-08-21T04:05:34;4.60;;;2.50;;
21215;SDS011;10765;50.954;5.322;2023-08-21T04:08:01;6.07;;;2.60;;
21215;SDS011;10765;50.954;5.322;2023-08-21T04:10:29;4.63;;;2.43;;
21215;SDS011;10765;50.954;5.322;2023-08-21T04:12:55;4.07;;;2.10;;
21215;SDS011;10765;50.954;5.322;2023-08-21T04:15:24;5.23;;;2.47;;
21215;SDS011;10765;50.954;5.322;2023-08-21T04:17:51;8.23;;;2.57;;
21215;SDS011;10765;50.954;5.322;2023-08-21T04:20:20;3.50;;;2.30;;
21215;SDS011;10765;50.954;5.322;2023-08-21T04:22:47;3.57;;;2.47;;
21215;SDS011;10765;50.954;5.322;2023-08-21T04:25:14;6.80;;;3.57;;
21215;SDS011;10765;50.954;5.322;2023-08-21T04:27:42;9.33;;;4.60;;
21215;SDS011;10765;50.954;5.322;2023-08-21T04:30:10;6.30;;;3.87;;
21215;SDS011;10765;50.954;5.322;2023-08-21T04:32:39;5.47;;;3.23;;
21215;SDS011;10765;50.954;5.322;2023-08-21T04:35:06;8.17;;;3.80;;
21215;SDS011;10765;50.954;5.322;2023-08-21T04:37:34;8.73;;;4.33;;
21215;SDS011;10765;50.954;5.322;2023-08-21T04:40:04;5.53;;;3.93;;
21215;SDS011;10765;50.954;5.322;2023-08-21T04:42:32;5.53;;;3.27;;
21215;SDS011;10765;50.954;5.322;2023-08-21T04:44:59;8.47;;;3.83;;
21215;SDS011;10765;50.954;5.322;2023-08-21T04:47:27;7.53;;;3.80;;
21215;SDS011;10765;50.954;5.322;2023-08-21T04:49:55;4.70;;;3.77;;
21215;SDS011;10765;50.954;5.322;2023-08-21T04:52:23;4.47;;;3.00;;
21215;SDS011;10765;50.954;5.322;2023-08-21T04:54:50;6.13;;;3.00;;
21215;SDS011;10765;50.954;5.322;2023-08-21T04:57:17;7.10;;;2.87;;
21215;SDS011;10765;50.954;5.322;2023-08-21T04:59:46;3.57;;;2.30;;
21215;SDS011;10765;50.954;5.322;2023-08-21T05:02:13;4.83;;;2.67;;
21215;SDS011;10765;50.954;5.322;2023-08-21T05:04:40;5.77;;;3.00;;
21215;SDS011;10765;50.954;5.322;2023-08-21T05:07:08;4.43;;;2.80;;
21215;SDS011;10765;50.954;5.322;2023-08-21T05:09:35;4.00;;;2.90;;
21215;SDS011;10765;50.954;5.322;2023-08-21T05:12:02;3.10;;;2.30;;
21215;SDS011;10765;50.954;5.322;2023-08-21T05:14:29;3.57;;;2.40;;
21215;SDS011;10765;50.954;5.322;2023-08-21T05:16:56;2.80;;;1.80;;
21215;SDS011;10765;50.954;5.322;2023-08-21T05:19:24;2.67;;;1.77;;
21215;SDS011;10765;50.954;5.322;2023-08-21T05:21:51;4.83;;;2.30;;
21215;SDS011;10765;50.954;5.322;2023-08-21T05:24:19;2.10;;;1.80;;
21215;SDS011;10765;50.954;5.322;2023-08-21T05:26:46;4.33;;;2.20;;
21215;SDS011;10765;50.954;5.322;2023-08-21T05:29:13;5.60;;;2.73;;
21215;SDS011;10765;50.954;5.322;2023-08-21T05:31:40;4.97;;;2.33;;
21215;SDS011;10765;50.954;5.322;2023-08-21T05:34:07;3.97;;;1.90;;
21215;SDS011;10765;50.954;5.322;2023-08-21T05:36:34;4.33;;;2.10;;
21215;SDS011;10765;50.954;5.322;2023-08-21T05:39:02;3.53;;;2.00;;
21215;SDS011;10765;50.954;5.322;2023-08-21T05:41:32;4.97;;;2.17;;
21215;SDS011;10765;50.954;5.322;2023-08-21T05:43:59;7.00;;;2.10;;
21215;SDS011;10765;50.954;5.322;2023-08-21T05:46:26;4.60;;;1.90;;
21215;SDS011;10765;50.954;5.322;2023-08-21T05:48:53;5.93;;;1.87;;
21215;SDS011;10765;50.954;5.322;2023-08-21T05:51:20;4.10;;;2.10;;
21215;SDS011;10765;50.954;5.322;2023-08-21T05:53:47;6.23;;;2.33;;
21215;SDS011;10765;50.954;5.322;2023-08-21T05:56:14;5.53;;;2.30;;
21215;SDS011;10765;50.954;5.322;2023-08-21T05:58:42;6.37;;;2.20;;
21215;SDS011;10765;50.954;5.322;2023-08-21T06:01:09;4.43;;;1.90;;
21215;SDS011;10765;50.954;5.322;2023-08-21T06:03:36;4.07;;;2.00;;
21215;SDS011;10765;50.954;5.322;2023-08-21T06:06:03;6.47;;;2.20;;
21215;SDS011;10765;50.954;5.322;2023-08-21T06:08:30;6.03;;;2.00;;
21215;SDS011;10765;50.954;5.322;2023-08-21T06:10:57;6.47;;;2.03;;
21215;SDS011;10765;50.954;5.322;2023-08-21T06:13:24;5.77;;;2.00;;
21215;SDS011;10765;50.954;5.322;2023-08-21T06:15:52;5.27;;;1.83;;
21215;SDS011;10765;50.954;5.322;2023-08-21T06:18:19;3.77;;;1.97;;
21215;SDS011;10765;50.954;5.322;2023-08-21T06:20:48;4.87;;;1.83;;
21215;SDS011;10765;50.954;5.322;2023-08-21T06:23:18;4.77;;;1.90;;
21215;SDS011;10765;50.954;5.322;2023-08-21T06:25:47;3.27;;;1.70;;
21215;SDS011;10765;50.954;5.322;2023-08-21T06:28:14;4.87;;;2.03;;
21215;SDS011;10765;50.954;5.322;2023-08-21T06:30:41;3.90;;;1.70;;
21215;SDS011;10765;50.954;5.322;2023-08-21T06:33:09;5.83;;;2.00;;
21215;SDS011;10765;50.954;5.322;2023-08-21T06:35:36;4.27;;;1.70;;
21215;SDS011;10765;50.954;5.322;2023-08-21T06:38:03;5.67;;;2.20;;
21215;SDS011;10765;50.954;5.322;2023-08-21T06:40:31;6.27;;;2.53;;
21215;SDS011;10765;50.954;5.322;2023-08-21T06:42:58;5.20;;;2.10;;
21215;SDS011;10765;50.954;5.322;2023-08-21T06:45:25;4.93;;;1.90;;
21215;SDS011;10765;50.954;5.322;2023-08-21T06:47:55;4.47;;;2.17;;
21215;SDS011;10765;50.954;5.322;2023-08-21T06:50:23;5.53;;;2.10;;
21215;SDS011;10765;50.954;5.322;2023-08-21T06:52:50;5.33;;;2.63;;
21215;SDS011;10765;50.954;5.322;2023-08-21T06:55:17;8.30;;;2.57;;
21215;SDS011;10765;50.954;5.322;2023-08-21T06:57:44;4.93;;;2.20;;
21215;SDS011;10765;50.954;5.322;2023-08-21T07:00:11;6.10;;;2.17;;
21215;SDS011;10765;50.954;5.322;2023-08-21T07:02:39;5.72;;;2.28;;
21215;SDS011;10765;50.954;5.322;2023-08-21T07:05:06;4.30;;;2.35;;
21215;SDS011;10765;50.954;5.322;2023-08-21T07:07:35;5.47;;;2.05;;
21215;SDS011;10765;50.954;5.322;2023-08-21T07:10:02;6.45;;;2.28;;
21215;SDS011;10765;50.954;5.322;2023-08-21T07:12:29;6.32;;;2.28;;
21215;SDS011;10765;50.954;5.322;2023-08-21T07:14:56;4.55;;;2.00;;
21215;SDS011;10765;50.954;5.322;2023-08-21T07:17:23;5.53;;;2.42;;
21215;SDS011;10765;50.954;5.322;2023-08-21T07:19:51;4.05;;;1.98;;
21215;SDS011;10765;50.954;5.322;2023-08-21T07:22:18;6.70;;;2.40;;
21215;SDS011;10765;50.954;5.322;2023-08-21T07:24:47;5.28;;;2.22;;
21215;SDS011;10765;50.954;5.322;2023-08-21T07:27:14;4.95;;;2.28;;
21215;SDS011;10765;50.954;5.322;2023-08-21T07:29:41;4.10;;;2.25;;
21215;SDS011;10765;50.954;5.322;2023-08-21T07:32:07;6.30;;;2.38;;
21215;SDS011;10765;50.954;5.322;2023-08-21T07:34:34;5.68;;;2.78;;
21215;SDS011;10765;50.954;5.322;2023-08-21T07:37:01;5.72;;;2.25;;
21215;SDS011;10765;50.954;5.322;2023-08-21T07:39:28;4.15;;;2.42;;
21215;SDS011;10765;50.954;5.322;2023-08-21T07:41:57;4.32;;;2.28;;
21215;SDS011;10765;50.954;5.322;2023-08-21T07:44:23;6.72;;;2.63;;
21215;SDS011;10765;50.954;5.322;2023-08-21T07:46:50;5.95;;;2.40;;
21215;SDS011;10765;50.954;5.322;2023-08-21T07:49:17;5.15;;;2.53;;
21215;SDS011;10765;50.954;5.322;2023-08-21T07:51:44;5.38;;;2.67;;
21215;SDS011;10765;50.954;5.322;2023-08-21T07:54:11;7.65;;;2.80;;
21215;SDS011;10765;50.954;5.322;2023-08-21T07:56:38;6.40;;;2.65;;
21215;SDS011;10765;50.954;5.322;2023-08-21T07:59:07;7.70;;;2.40;;
21215;SDS011;10765;50.954;5.322;2023-08-21T08:01:34;7.45;;;3.10;;
21215;SDS011;10765;50.954;5.322;2023-08-21T08:04:01;5.47;;;2.28;;
21215;SDS011;10765;50.954;5.322;2023-08-21T08:06:28;5.25;;;2.40;;
21215;SDS011;10765;50.954;5.322;2023-08-21T08:08:55;4.80;;;1.80;;
21215;SDS011;10765;50.954;5.322;2023-08-21T08:11:22;6.43;;;2.30;;
21215;SDS011;10765;50.954;5.322;2023-08-21T08:13:49;5.78;;;2.80;;
21215;SDS011;10765;50.954;5.322;2023-08-21T08:16:17;4.72;;;2.05;;
21215;SDS011;10765;50.954;5.322;2023-08-21T08:18:44;4.43;;;2.03;;
21215;SDS011;10765;50.954;5.322;2023-08-21T08:21:11;5.72;;;2.22;;
21215;SDS011;10765;50.954;5.322;2023-08-21T08:23:38;5.18;;;2.15;;
21215;SDS011;10765;50.954;5.322;2023-08-21T08:26:05;5.18;;;2.58;;
21215;SDS011;10765;50.954;5.322;2023-08-21T08:28:33;3.53;;;2.08;;
21215;SDS011;10765;50.954;5.322;2023-08-21T08:31:00;4.13;;;1.90;;
21215;SDS011;10765;50.954;5.322;2023-08-21T08:33:29;4.60;;;1.88;;
21215;SDS011;10765;50.954;5.322;2023-08-21T08:35:56;4.57;;;2.20;;
21215;SDS011;10765;50.954;5.322;2023-08-21T08:38:22;4.78;;;2.05;;
21215;SDS011;10765;50.954;5.322;2023-08-21T08:40:49;4.68;;;2.35;;
21215;SDS011;10765;50.954;5.322;2023-08-21T08:43:20;4.63;;;2.20;;
21215;SDS011;10765;50.954;5.322;2023-08-21T08:45:50;3.70;;;1.77;;
21215;SDS011;10765;50.954;5.322;2023-08-21T08:48:19;5.30;;;2.08;;
21215;SDS011;10765;50.954;5.322;2023-08-21T08:50:49;5.28;;;2.20;;
21215;SDS011;10765;50.954;5.322;2023-08-21T08:53:17;5.28;;;2.10;;
21215;SDS011;10765;50.954;5.322;2023-08-21T08:55:45;3.95;;;1.90;;
21215;SDS011;10765;50.954;5.322;2023-08-21T08:58:12;6.28;;;2.33;;
21215;SDS011;10765;50.954;5.322;2023-08-21T09:00:39;6.88;;;1.92;;
21215;SDS011;10765;50.954;5.322;2023-08-21T09:03:06;6.80;;;2.33;;
21215;SDS011;10765;50.954;5.322;2023-08-21T09:05:33;4.57;;;1.75;;
21215;SDS011;10765;50.954;5.322;2023-08-21T09:08:10;2.90;;;1.60;;
21215;SDS011;10765;50.954;5.322;2023-08-21T09:10:38;6.18;;;2.35;;
21215;SDS011;10765;50.954;5.322;2023-08-21T09:13:11;3.05;;;1.75;;
21215;SDS011;10765;50.954;5.322;2023-08-21T09:15:40;4.38;;;2.00;;
21215;SDS011;10765;50.954;5.322;2023-08-21T09:18:08;4.55;;;2.25;;
21215;SDS011;10765;50.954;5.322;2023-08-21T09:20:36;5.47;;;2.00;;
21215;SDS011;10765;50.954;5.322;2023-08-21T09:23:04;3.53;;;1.40;;
21215;SDS011;10765;50.954;5.322;2023-08-21T09:25:36;5.28;;;1.83;;
21215;SDS011;10765;50.954;5.322;2023-08-21T09:28:05;4.28;;;1.90;;
21215;SDS011;10765;50.954;5.322;2023-08-21T09:30:45;3.70;;;1.52;;
21215;SDS011;10765;50.954;5.322;2023-08-21T09:33:13;4.65;;;1.58;;
21215;SDS011;10765;50.954;5.322;2023-08-21T09:35:42;5.18;;;1.90;;
21215;SDS011;10765;50.954;5.322;2023-08-21T09:38:10;3.38;;;1.70;;
21215;SDS011;10765;50.954;5.322;2023-08-21T09:40:40;4.18;;;1.42;;
21215;SDS011;10765;50.954;5.322;2023-08-21T09:43:08;4.20;;;1.65;;
21215;SDS011;10765;50.954;5.322;2023-08-21T09:45:36;3.60;;;1.48;;
21215;SDS011;10765;50.954;5.322;2023-08-21T09:48:03;4.68;;;1.45;;
21215;SDS011;10765;50.954;5.322;2023-08-21T09:50:31;2.92;;;1.63;;
21215;SDS011;10765;50.954;5.322;2023-08-21T09:52:59;3.58;;;1.73;;
21215;SDS011;10765;50.954;5.322;2023-08-21T09:55:28;3.75;;;1.38;;
21215;SDS011;10765;50.954;5.322;2023-08-21T09:57:59;3.95;;;1.65;;
21215;SDS011;10765;50.954;5.322;2023-08-21T10:00:30;5.72;;;1.88;;
21215;SDS011;10765;50.954;5.322;2023-08-21T10:03:00;4.82;;;1.60;;
21215;SDS011;10765;50.954;5.322;2023-08-21T10:05:28;4.32;;;1.67;;
21215;SDS011;10765;50.954;5.322;2023-08-21T10:07:56;3.75;;;1.73;;
21215;SDS011;10765;50.954;5.322;2023-08-21T10:10:28;4.50;;;1.77;;
21215;SDS011;10765;50.954;5.322;2023-08-21T10:12:56;5.97;;;1.75;;
21215;SDS011;10765;50.954;5.322;2023-08-21T10:15:26;4.38;;;1.65;;
21215;SDS011;10765;50.954;5.322;2023-08-21T10:17:54;4.10;;;1.80;;
21215;SDS011;10765;50.954;5.322;2023-08-21T10:20:23;4.72;;;1.70;;
21215;SDS011;10765;50.954;5.322;2023-08-21T10:22:52;4.18;;;1.55;;
21215;SDS011;10765;50.954;5.322;2023-08-21T10:25:21;4.47;;;1.75;;
21215;SDS011;10765;50.954;5.322;2023-08-21T10:27:51;4.68;;;1.60;;
21215;SDS011;10765;50.954;5.322;2023-08-21T10:30:20;5.20;;;1.98;;
21215;SDS011;10765;50.954;5.322;2023-08-21T10:32:50;5.18;;;2.03;;
21215;SDS011;10765;50.954;5.322;2023-08-21T10:35:19;3.38;;;1.70;;
21215;SDS011;10765;50.954;5.322;2023-08-21T10:38:05;7.75;;;2.03;;
21215;SDS011;10765;50.954;5.322;2023-08-21T10:40:36;4.72;;;1.70;;
21215;SDS011;10765;50.954;5.322;2023-08-21T10:43:04;5.72;;;1.98;;
21215;SDS011;10765;50.954;5.322;2023-08-21T10:45:54;4.75;;;1.70;;
21215;SDS011;10765;50.954;5.322;2023-08-21T10:48:23;4.57;;;1.60;;
21215;SDS011;10765;50.954;5.322;2023-08-21T10:50:49;5.00;;;1.77;;
21215;SDS011;10765;50.954;5.322;2023-08-21T10:53:17;5.30;;;1.77;;
21215;SDS011;10765;50.954;5.322;2023-08-21T10:55:52;5.68;;;1.92;;
21215;SDS011;10765;50.954;5.322;2023-08-21T10:58:19;5.38;;;2.00;;
21215;SDS011;10765;50.954;5.322;2023-08-21T11:00:46;4.85;;;1.63;;
21215;SDS011;10765;50.954;5.322;2023-08-21T11:03:14;4.18;;;1.67;;
21215;SDS011;10765;50.954;5.322;2023-08-21T11:05:43;6.00;;;1.88;;
21215;SDS011;10765;50.954;5.322;2023-08-21T11:08:10;7.25;;;1.90;;
21215;SDS011;10765;50.954;5.322;2023-08-21T11:10:37;3.20;;;1.60;;
21215;SDS011;10765;50.954;5.322;2023-08-21T11:13:06;3.35;;;1.75;;
21215;SDS011;10765;50.954;5.322;2023-08-21T11:15:33;5.13;;;1.80;;
21215;SDS011;10765;50.954;5.322;2023-08-21T11:18:01;6.40;;;2.20;;
21215;SDS011;10765;50.954;5.322;2023-08-21T11:20:29;3.20;;;1.30;;
21215;SDS011;10765;50.954;5.322;2023-08-21T11:22:58;3.42;;;1.70;;
21215;SDS011;10765;50.954;5.322;2023-08-21T11:25:27;3.72;;;1.40;;
21215;SDS011;10765;50.954;5.322;2023-08-21T11:27:54;5.50;;;1.63;;
21215;SDS011;10765;50.954;5.322;2023-08-21T11:30:21;3.38;;;1.52;;
21215;SDS011;10765;50.954;5.322;2023-08-21T11:32:49;2.80;;;1.60;;
21215;SDS011;10765;50.954;5.322;2023-08-21T11:35:30;4.75;;;1.58;;
21215;SDS011;10765;50.954;5.322;2023-08-21T11:37:58;5.20;;;1.80;;
21215;SDS011;10765;50.954;5.322;2023-08-21T11:40:25;4.75;;;1.65;;
21215;SDS011;10765;50.954;5.322;2023-08-21T11:42:52;5.20;;;1.65;;
21215;SDS011;10765;50.954;5.322;2023-08-21T11:45:25;5.32;;;1.80;;
21215;SDS011;10765;50.954;5.322;2023-08-21T11:47:55;6.05;;;1.58;;
21215;SDS011;10765;50.954;5.322;2023-08-21T11:50:22;18.33;;;4.25;;
21215;SDS011;10765;50.954;5.322;2023-08-21T11:52:50;4.13;;;1.70;;
21215;SDS011;10765;50.954;5.322;2023-08-21T11:55:19;5.65;;;1.60;;
21215;SDS011;10765;50.954;5.322;2023-08-21T11:57:47;4.90;;;1.63;;
21215;SDS011;10765;50.954;5.322;2023-08-21T12:00:14;5.13;;;2.08;;
21215;SDS011;10765;50.954;5.322;2023-08-21T12:02:44;3.97;;;1.70;;
21215;SDS011;10765;50.954;5.322;2023-08-21T12:05:20;4.07;;;1.70;;
21215;SDS011;10765;50.954;5.322;2023-08-21T12:07:47;2.85;;;1.52;;
21215;SDS011;10765;50.954;5.322;2023-08-21T12:10:14;4.03;;;1.70;;
21215;SDS011;10765;50.954;5.322;2023-08-21T12:12:49;3.90;;;1.60;;
21215;SDS011;10765;50.954;5.322;2023-08-21T12:15:16;4.70;;;1.70;;
21215;SDS011;10765;50.954;5.322;2023-08-21T12:17:43;5.95;;;1.83;;
21215;SDS011;10765;50.954;5.322;2023-08-21T12:20:10;3.80;;;1.60;;
21215;SDS011;10765;50.954;5.322;2023-08-21T12:22:38;3.63;;;1.60;;
21215;SDS011;10765;50.954;5.322;2023-08-21T12:25:05;6.20;;;2.03;;
21215;SDS011;10765;50.954;5.322;2023-08-21T12:27:33;4.32;;;1.77;;
21215;SDS011;10765;50.954;5.322;2023-08-21T12:30:02;4.47;;;1.65;;
21215;SDS011;10765;50.954;5.322;2023-08-21T12:32:29;4.00;;;2.00;;
21215;SDS011;10765;50.954;5.322;2023-08-21T12:34:56;2.50;;;1.40;;
21215;SDS011;10765;50.954;5.322;2023-08-21T12:37:23;4.30;;;1.90;;
21215;SDS011;10765;50.954;5.322;2023-08-21T12:39:50;6.63;;;1.90;;
21215;SDS011;10765;50.954;5.322;2023-08-21T12:42:17;4.10;;;1.83;;
21215;SDS011;10765;50.954;5.322;2023-08-21T12:44:44;5.38;;;2.00;;
21215;SDS011;10765;50.954;5.322;2023-08-21T12:47:12;4.65;;;1.67;;
21215;SDS011;10765;50.954;5.322;2023-08-21T12:49:39;5.70;;;1.70;;
21215;SDS011;10765;50.954;5.322;2023-08-21T12:52:06;4.65;;;1.52;;
21215;SDS011;10765;50.954;5.322;2023-08-21T12:54:33;7.07;;;2.08;;
21215;SDS011;10765;50.954;5.322;2023-08-21T12:57:00;3.88;;;1.60;;
21215;SDS011;10765;50.954;5.322;2023-08-21T12:59:27;3.17;;;1.75;;
21215;SDS011;10765;50.954;5.322;2023-08-21T13:01:53;5.57;;;1.92;;
21215;SDS011;10765;50.954;5.322;2023-08-21T13:04:22;6.78;;;1.73;;
21215;SDS011;10765;50.954;5.322;2023-08-21T13:06:49;3.63;;;1.65;;
21215;SDS011;10765;50.954;5.322;2023-08-21T13:09:15;5.72;;;1.45;;
21215;SDS011;10765;50.954;5.322;2023-08-21T13:11:42;4.63;;;1.83;;
21215;SDS011;10765;50.954;5.322;2023-08-21T13:14:09;3.80;;;1.42;;
21215;SDS011;10765;50.954;5.322;2023-08-21T13:16:36;3.47;;;1.67;;
21215;SDS011;10765;50.954;5.322;2023-08-21T13:19:03;4.03;;;1.67;;
21215;SDS011;10765;50.954;5.322;2023-08-21T13:21:31;4.47;;;1.90;;
21215;SDS011;10765;50.954;5.322;2023-08-21T13:23:58;4.53;;;1.63;;
21215;SDS011;10765;50.954;5.322;2023-08-21T13:26:25;2.90;;;1.60;;
21215;SDS011;10765;50.954;5.322;2023-08-21T13:28:54;4.22;;;1.77;;
21215;SDS011;10765;50.954;5.322;2023-08-21T13:31:21;3.95;;;1.85;;
21215;SDS011;10765;50.954;5.322;2023-08-21T13:33:48;4.30;;;1.63;;
21215;SDS011;10765;50.954;5.322;2023-08-21T13:36:18;5.13;;;1.80;;
21215;SDS011;10765;50.954;5.322;2023-08-21T13:38:48;4.53;;;1.70;;
21215;SDS011;10765;50.954;5.322;2023-08-21T13:41:15;4.55;;;1.50;;
21215;SDS011;10765;50.954;5.322;2023-08-21T13:43:42;2.85;;;1.60;;
21215;SDS011;10765;50.954;5.322;2023-08-21T13:46:08;6.40;;;2.05;;
21215;SDS011;10765;50.954;5.322;2023-08-21T13:48:35;4.22;;;1.85;;
21215;SDS011;10765;50.954;5.322;2023-08-21T13:51:02;4.85;;;1.60;;
21215;SDS011;10765;50.954;5.322;2023-08-21T13:53:29;4.75;;;1.70;;
21215;SDS011;10765;50.954;5.322;2023-08-21T13:55:57;5.90;;;2.10;;
21215;SDS011;10765;50.954;5.322;2023-08-21T13:58:24;3.35;;;1.60;;
21215;SDS011;10765;50.954;5.322;2023-08-21T14:00:51;4.75;;;1.90;;
21215;SDS011;10765;50.954;5.322;2023-08-21T14:03:18;5.38;;;1.83;;
21215;SDS011;10765;50.954;5.322;2023-08-21T14:05:45;3.97;;;1.80;;
21215;SDS011;10765;50.954;5.322;2023-08-21T14:08:12;4.05;;;1.70;;
21215;SDS011;10765;50.954;5.322;2023-08-21T14:10:39;6.45;;;1.75;;
21215;SDS011;10765;50.954;5.322;2023-08-21T14:13:07;5.65;;;1.50;;
21215;SDS011;10765;50.954;5.322;2023-08-21T14:15:34;2.67;;;1.27;;
21215;SDS011;10765;50.954;5.322;2023-08-21T14:18:01;5.20;;;1.40;;
21215;SDS011;10765;50.954;5.322;2023-08-21T14:20:28;3.58;;;1.52;;
21215;SDS011;10765;50.954;5.322;2023-08-21T14:22:55;5.72;;;1.65;;
21215;SDS011;10765;50.954;5.322;2023-08-21T14:25:22;3.10;;;1.60;;
21215;SDS011;10765;50.954;5.322;2023-08-21T14:27:49;3.55;;;1.50;;
21215;SDS011;10765;50.954;5.322;2023-08-21T14:30:17;4.00;;;1.33;;
21215;SDS011;10765;50.954;5.322;2023-08-21T14:32:47;3.55;;;1.52;;
21215;SDS011;10765;50.954;5.322;2023-08-21T14:35:14;3.10;;;1.58;;
21215;SDS011;10765;50.954;5.322;2023-08-21T14:37:41;3.88;;;1.60;;
21215;SDS011;10765;50.954;5.322;2023-08-21T14:40:08;5.80;;;1.60;;
21215;SDS011;10765;50.954;5.322;2023-08-21T14:42:36;4.35;;;1.52;;
21215;SDS011;10765;50.954;5.322;2023-08-21T14:45:03;4.55;;;1.60;;
21215;SDS011;10765;50.954;5.322;2023-08-21T14:47:32;6.53;;;1.77;;
21215;SDS011;10765;50.954;5.322;2023-08-21T14:49:59;2.35;;;1.42;;
21215;SDS011;10765;50.954;5.322;2023-08-21T14:52:26;2.67;;;1.48;;
21215;SDS011;10765;50.954;5.322;2023-08-21T14:54:52;4.88;;;1.35;;